sensor_id;sensor_type;location;lat;lon;timestamp;pressure;altitude;pressure_sealevel;temperature;humidity
15670;BME280;18524;45.190;5.732;2022-11-14T00:04:16;99397.25;;;9.07;100.00
15670;BME280;18524;45.190;5.732;2022-11-14T00:09:06;99388.06;;;9.02;100.00
15670;BME280;18524;45.190;5.732;2022-11-14T00:13:57;99380.88;;;8.93;100.00
15670;BME280;18524;45.190;5.732;2022-11-14T00:18:47;99388.63;;;9.18;100.00
15670;BME280;18524;45.190;5.732;2022-11-14T00:23:37;99382.75;;;9.27;100.00
15670;BME280;18524;45.190;5.732;2022-11-14T00:28:28;99371.97;;;9.32;100.00
15670;BME280;18524;45.190;5.732;2022-11-14T00:33:19;99381.28;;;9.23;100.00
15670;BME280;18524;45.190;5.732;2022-11-14T00:38:10;99360.25;;;9.25;100.00
15670;BME280;18524;45.190;5.732;2022-11-14T00:43:00;99366.66;;;9.21;100.00
15670;BME280;18524;45.190;5.732;2022-11-14T00:47:51;99353.56;;;9.21;100.00
15670;BME280;18524;45.190;5.732;2022-11-14T00:52:41;99346.16;;;9.15;100.00
15670;BME280;18524;45.190;5.732;2022-11-14T00:57:31;99343.53;;;9.15;100.00
15670;BME280;18524;45.190;5.732;2022-11-14T01:02:22;99337.88;;;9.21;100.00
15670;BME280;18524;45.190;5.732;2022-11-14T01:07:12;99333.66;;;9.31;100.00
15670;BME280;18524;45.190;5.732;2022-11-14T01:12:03;99333.94;;;9.39;100.00
15670;BME280;18524;45.190;5.732;2022-11-14T01:16:53;99327.09;;;9.49;100.00
15670;BME280;18524;45.190;5.732;2022-11-14T01:26:34;99322.69;;;9.50;100.00
15670;BME280;18524;45.190;5.732;2022-11-14T01:31:25;99311.25;;;9.51;100.00
15670;BME280;18524;45.190;5.732;2022-11-14T01:36:15;99320.19;;;9.48;100.00
15670;BME280;18524;45.190;5.732;2022-11-14T01:41:06;99314.09;;;9.48;100.00
15670;BME280;18524;45.190;5.732;2022-11-14T01:50:54;99303.19;;;9.54;100.00
15670;BME280;18524;45.190;5.732;2022-11-14T01:55:46;99285.56;;;9.56;100.00
15670;BME280;18524;45.190;5.732;2022-11-14T02:00:36;99283.44;;;9.61;100.00
15670;BME280;18524;45.190;5.732;2022-11-14T02:05:27;99283.91;;;9.55;100.00
15670;BME280;18524;45.190;5.732;2022-11-14T02:10:20;99278.69;;;9.66;100.00
15670;BME280;18524;45.190;5.732;2022-11-14T02:15:11;99269.00;;;9.79;100.00
15670;BME280;18524;45.190;5.732;2022-11-14T02:24:52;99276.94;;;9.66;100.00
15670;BME280;18524;45.190;5.732;2022-11-14T02:29:43;99271.00;;;9.76;100.00
15670;BME280;18524;45.190;5.732;2022-11-14T02:34:33;99266.75;;;9.86;100.00
15670;BME280;18524;45.190;5.732;2022-11-14T02:39:24;99267.69;;;9.85;100.00
15670;BME280;18524;45.190;5.732;2022-11-14T02:44:14;99265.44;;;9.91;100.00
15670;BME280;18524;45.190;5.732;2022-11-14T02:49:04;99257.69;;;9.90;100.00
15670;BME280;18524;45.190;5.732;2022-11-14T02:53:55;99254.97;;;9.91;100.00
15670;BME280;18524;45.190;5.732;2022-11-14T02:58:45;99259.50;;;10.00;100.00
15670;BME280;18524;45.190;5.732;2022-11-14T03:03:35;99249.75;;;10.14;100.00
15670;BME280;18524;45.190;5.732;2022-11-14T03:08:26;99250.03;;;10.33;100.00
15670;BME280;18524;45.190;5.732;2022-11-14T03:13:16;99253.84;;;10.29;100.00
15670;BME280;18524;45.190;5.732;2022-11-14T03:18:07;99255.97;;;10.35;100.00
15670;BME280;18524;45.190;5.732;2022-11-14T03:22:57;99255.25;;;10.33;100.00
15670;BME280;18524;45.190;5.732;2022-11-14T03:27:47;99256.69;;;10.37;100.00
15670;BME280;18524;45.190;5.732;2022-11-14T03:32:38;99251.22;;;10.40;100.00
15670;BME280;18524;45.190;5.732;2022-11-14T03:37:28;99257.41;;;10.39;100.00
15670;BME280;18524;45.190;5.732;2022-11-14T03:42:18;99261.13;;;10.48;100.00
15670;BME280;18524;45.190;5.732;2022-11-14T03:47:09;99264.81;;;10.45;100.00
15670;BME280;18524;45.190;5.732;2022-11-14T03:51:59;99257.41;;;10.39;100.00
15670;BME280;18524;45.190;5.732;2022-11-14T03:56:50;99264.81;;;10.45;100.00
15670;BME280;18524;45.190;5.732;2022-11-14T04:01:40;99267.41;;;10.23;100.00
15670;BME280;18524;45.190;5.732;2022-11-14T04:06:30;99264.41;;;10.16;100.00
15670;BME280;18524;45.190;5.732;2022-11-14T04:11:21;99258.59;;;10.24;100.00
15670;BME280;18524;45.190;5.732;2022-11-14T04:16:11;99260.72;;;10.19;100.00
15670;BME280;18524;45.190;5.732;2022-11-14T04:21:01;99258.69;;;10.11;100.00
15670;BME280;18524;45.190;5.732;2022-11-14T04:25:52;99252.78;;;10.20;100.00
15670;BME280;18524;45.190;5.732;2022-11-14T04:30:42;99248.34;;;10.21;100.00
15670;BME280;18524;45.190;5.732;2022-11-14T04:35:34;99251.69;;;10.23;100.00
15670;BME280;18524;45.190;5.732;2022-11-14T04:40:24;99244.19;;;10.29;100.00
15670;BME280;18524;45.190;5.732;2022-11-14T04:45:15;99254.22;;;10.47;100.00
15670;BME280;18524;45.190;5.732;2022-11-14T04:50:05;99251.84;;;10.44;100.00
15670;BME280;18524;45.190;5.732;2022-11-14T04:54:56;99241.56;;;10.52;100.00
15670;BME280;18524;45.190;5.732;2022-11-14T04:59:46;99238.34;;;10.59;100.00
15670;BME280;18524;45.190;5.732;2022-11-14T05:04:37;99234.38;;;10.65;100.00
15670;BME280;18524;45.190;5.732;2022-11-14T05:09:27;99234.16;;;10.68;100.00
15670;BME280;18524;45.190;5.732;2022-11-14T05:14:17;99246.31;;;10.80;100.00
15670;BME280;18524;45.190;5.732;2022-11-14T05:19:08;99239.59;;;10.87;100.00
15670;BME280;18524;45.190;5.732;2022-11-14T05:23:58;99252.75;;;10.65;100.00
15670;BME280;18524;45.190;5.732;2022-11-14T05:28:48;99253.47;;;10.56;100.00
15670;BME280;18524;45.190;5.732;2022-11-14T05:33:39;99252.78;;;10.54;100.00
15670;BME280;18524;45.190;5.732;2022-11-14T05:38:30;99253.25;;;10.48;100.00
15670;BME280;18524;45.190;5.732;2022-11-14T05:43:20;99247.75;;;10.40;100.00
15670;BME280;18524;45.190;5.732;2022-11-14T05:48:10;99248.94;;;10.58;100.00
15670;BME280;18524;45.190;5.732;2022-11-14T05:53:01;99251.47;;;10.48;100.00
15670;BME280;18524;45.190;5.732;2022-11-14T05:57:51;99255.63;;;10.62;100.00
15670;BME280;18524;45.190;5.732;2022-11-14T06:02:41;99257.53;;;10.60;100.00
15670;BME280;18524;45.190;5.732;2022-11-14T06:07:32;99262.53;;;10.63;100.00
15670;BME280;18524;45.190;5.732;2022-11-14T06:12:22;99244.88;;;10.65;100.00
15670;BME280;18524;45.190;5.732;2022-11-14T06:17:12;99250.25;;;10.63;100.00
15670;BME280;18524;45.190;5.732;2022-11-14T06:22:03;99255.00;;;10.70;100.00
15670;BME280;18524;45.190;5.732;2022-11-14T06:26:53;99250.22;;;10.75;100.00
15670;BME280;18524;45.190;5.732;2022-11-14T06:31:43;99258.94;;;10.75;100.00
15670;BME280;18524;45.190;5.732;2022-11-14T06:36:34;99261.09;;;10.70;100.00
15670;BME280;18524;45.190;5.732;2022-11-14T06:41:24;99260.50;;;10.67;100.00
15670;BME280;18524;45.190;5.732;2022-11-14T06:46:17;99267.16;;;10.71;100.00
15670;BME280;18524;45.190;5.732;2022-11-14T06:51:10;99273.81;;;10.75;100.00
15670;BME280;18524;45.190;5.732;2022-11-14T06:56:04;99271.81;;;10.78;100.00
15670;BME280;18524;45.190;5.732;2022-11-14T07:00:55;99280.50;;;10.90;100.00
15670;BME280;18524;45.190;5.732;2022-11-14T07:05:45;99284.19;;;10.99;100.00
15670;BME280;18524;45.190;5.732;2022-11-14T07:10:36;99277.00;;;11.01;100.00
15670;BME280;18524;45.190;5.732;2022-11-14T07:15:26;99280.22;;;11.15;100.00
15670;BME280;18524;45.190;5.732;2022-11-14T07:20:17;99287.84;;;11.18;100.00
15670;BME280;18524;45.190;5.732;2022-11-14T07:25:10;99295.22;;;11.24;100.00
15670;BME280;18524;45.190;5.732;2022-11-14T07:30:00;99303.81;;;11.26;100.00
15670;BME280;18524;45.190;5.732;2022-11-14T07:34:50;99302.84;;;11.27;100.00
15670;BME280;18524;45.190;5.732;2022-11-14T07:39:41;99305.09;;;11.32;100.00
15670;BME280;18524;45.190;5.732;2022-11-14T07:44:31;99306.00;;;11.42;100.00
15670;BME280;18524;45.190;5.732;2022-11-14T07:49:21;99313.63;;;11.45;100.00
15670;BME280;18524;45.190;5.732;2022-11-14T07:54:12;99309.66;;;11.51;100.00
15670;BME280;18524;45.190;5.732;2022-11-14T07:59:02;99301.25;;;11.68;100.00
15670;BME280;18524;45.190;5.732;2022-11-14T08:03:53;99316.19;;;11.68;100.00
15670;BME280;18524;45.190;5.732;2022-11-14T08:08:43;99312.03;;;11.65;100.00
15670;BME280;18524;45.190;5.732;2022-11-14T08:13:33;99305.88;;;11.76;100.00
15670;BME280;18524;45.190;5.732;2022-11-14T08:18:24;99313.59;;;11.88;100.00
15670;BME280;18524;45.190;5.732;2022-11-14T08:23:15;99317.53;;;11.94;100.00
15670;BME280;18524;45.190;5.732;2022-11-14T08:28:05;99314.91;;;11.94;100.00
15670;BME280;18524;45.190;5.732;2022-11-14T08:32:55;99310.00;;;12.10;100.00
15670;BME280;18524;45.190;5.732;2022-11-14T08:37:46;99316.69;;;12.14;100.00
15670;BME280;18524;45.190;5.732;2022-11-14T08:42:36;99324.25;;;12.29;100.00
15670;BME280;18524;45.190;5.732;2022-11-14T08:47:27;99327.06;;;12.37;100.00
15670;BME280;18524;45.190;5.732;2022-11-14T08:52:17;99329.03;;;12.44;100.00
15670;BME280;18524;45.190;5.732;2022-11-14T08:57:07;99331.72;;;12.54;100.00
15670;BME280;18524;45.190;5.732;2022-11-14T09:01:58;99334.00;;;12.68;100.00
15670;BME280;18524;45.190;5.732;2022-11-14T09:06:49;99336.41;;;12.81;100.00
15670;BME280;18524;45.190;5.732;2022-11-14T09:11:40;99342.25;;;12.94;100.00
15670;BME280;18524;45.190;5.732;2022-11-14T09:16:31;99353.09;;;13.01;100.00
15670;BME280;18524;45.190;5.732;2022-11-14T09:21:22;99354.38;;;13.06;100.00
15670;BME280;18524;45.190;5.732;2022-11-14T09:26:13;99345.84;;;13.24;100.00
15670;BME280;18524;45.190;5.732;2022-11-14T09:31:06;99361.78;;;13.32;100.00
15670;BME280;18524;45.190;5.732;2022-11-14T09:36:01;99354.06;;;13.40;100.00
15670;BME280;18524;45.190;5.732;2022-11-14T09:45:57;99347.41;;;13.55;100.00
15670;BME280;18524;45.190;5.732;2022-11-14T09:50:59;99356.28;;;13.73;100.00
15670;BME280;18524;45.190;5.732;2022-11-14T09:55:53;99358.41;;;13.80;99.44
15670;BME280;18524;45.190;5.732;2022-11-14T10:00:57;99358.25;;;13.81;99.16
15670;BME280;18524;45.190;5.732;2022-11-14T10:10:53;99343.28;;;13.91;99.13
15670;BME280;18524;45.190;5.732;2022-11-14T10:16:04;99348.09;;;14.05;99.49
15670;BME280;18524;45.190;5.732;2022-11-14T10:21:13;99339.88;;;14.28;97.98
15670;BME280;18524;45.190;5.732;2022-11-14T10:26:26;99336.56;;;14.26;98.18
15670;BME280;18524;45.190;5.732;2022-11-14T10:41:37;99316.19;;;14.65;96.64
15670;BME280;18524;45.190;5.732;2022-11-14T10:46:32;99316.16;;;14.75;96.19
15670;BME280;18524;45.190;5.732;2022-11-14T10:52:11;99307.78;;;14.79;94.90
15670;BME280;18524;45.190;5.732;2022-11-14T10:56:49;99309.00;;;14.85;94.32
15670;BME280;18524;45.190;5.732;2022-11-14T11:06:32;99310.50;;;14.97;94.75
15670;BME280;18524;45.190;5.732;2022-11-14T11:11:22;99296.53;;;15.05;94.20
15670;BME280;18524;45.190;5.732;2022-11-14T11:16:20;99296.31;;;15.16;94.22
15670;BME280;18524;45.190;5.732;2022-11-14T11:21:13;99292.41;;;15.20;93.52
15670;BME280;18524;45.190;5.732;2022-11-14T11:31:10;99288.22;;;15.45;92.63
15670;BME280;18524;45.190;5.732;2022-11-14T11:45:55;99276.41;;;15.92;88.36
15670;BME280;18524;45.190;5.732;2022-11-14T11:50:49;99273.88;;;16.09;81.68
15670;BME280;18524;45.190;5.732;2022-11-14T11:55:43;99268.16;;;16.21;75.31
15670;BME280;18524;45.190;5.732;2022-11-14T12:00:34;99261.63;;;16.34;71.03
15670;BME280;18524;45.190;5.732;2022-11-14T12:05:52;99258.72;;;16.45;67.54
15670;BME280;18524;45.190;5.732;2022-11-14T12:10:44;99263.88;;;16.54;66.32
15670;BME280;18524;45.190;5.732;2022-11-14T12:21:09;99253.47;;;16.61;62.34
15670;BME280;18524;45.190;5.732;2022-11-14T12:31:11;99251.94;;;16.76;59.48
15670;BME280;18524;45.190;5.732;2022-11-14T12:36:06;99237.91;;;16.92;55.63
15670;BME280;18524;45.190;5.732;2022-11-14T12:40:59;99233.09;;;16.96;55.38
15670;BME280;18524;45.190;5.732;2022-11-14T12:50:41;99228.34;;;17.15;55.95
15670;BME280;18524;45.190;5.732;2022-11-14T13:00:26;99201.34;;;17.28;51.37
15670;BME280;18524;45.190;5.732;2022-11-14T13:10:36;99196.22;;;17.27;54.27
15670;BME280;18524;45.190;5.732;2022-11-14T13:15:46;99182.81;;;17.36;51.96
15670;BME280;18524;45.190;5.732;2022-11-14T13:21:01;99176.50;;;17.37;50.87
15670;BME280;18524;45.190;5.732;2022-11-14T13:31:05;99162.09;;;17.32;50.33
15670;BME280;18524;45.190;5.732;2022-11-14T13:35:55;99160.09;;;17.26;52.03
15670;BME280;18524;45.190;5.732;2022-11-14T13:50:54;99157.97;;;17.13;50.33
15670;BME280;18524;45.190;5.732;2022-11-14T14:21:52;99122.47;;;17.38;49.81
15670;BME280;18524;45.190;5.732;2022-11-14T14:32:16;99122.97;;;17.50;49.25
15670;BME280;18524;45.190;5.732;2022-11-14T14:37:21;99110.72;;;17.41;47.87
15670;BME280;18524;45.190;5.732;2022-11-14T14:42:12;99111.56;;;17.49;48.64
15670;BME280;18524;45.190;5.732;2022-11-14T14:47:35;99108.88;;;17.41;48.29
15670;BME280;18524;45.190;5.732;2022-11-14T14:52:34;99104.09;;;17.37;48.37
15670;BME280;18524;45.190;5.732;2022-11-14T14:57:25;99091.19;;;17.34;46.53
15670;BME280;18524;45.190;5.732;2022-11-14T15:02:17;99105.44;;;17.25;48.00
15670;BME280;18524;45.190;5.732;2022-11-14T15:07:19;99098.81;;;17.21;47.38
15670;BME280;18524;45.190;5.732;2022-11-14T15:12:10;99095.00;;;17.15;48.14
15670;BME280;18524;45.190;5.732;2022-11-14T15:17:02;99101.47;;;17.04;47.50
15670;BME280;18524;45.190;5.732;2022-11-14T15:27:18;99091.53;;;16.90;49.41
15670;BME280;18524;45.190;5.732;2022-11-14T15:32:21;99081.44;;;16.85;47.90
15670;BME280;18524;45.190;5.732;2022-11-14T15:47:27;99088.88;;;16.98;45.81
15670;BME280;18524;45.190;5.732;2022-11-14T15:52:23;99086.72;;;16.85;48.59
15670;BME280;18524;45.190;5.732;2022-11-14T15:57:15;99090.19;;;16.94;49.30
15670;BME280;18524;45.190;5.732;2022-11-14T16:02:20;99089.38;;;16.85;49.93
15670;BME280;18524;45.190;5.732;2022-11-14T16:07:13;99082.41;;;16.68;51.12
15670;BME280;18524;45.190;5.732;2022-11-14T16:12:03;99082.03;;;16.63;50.86
15670;BME280;18524;45.190;5.732;2022-11-14T16:16:54;99090.13;;;16.53;50.50
15670;BME280;18524;45.190;5.732;2022-11-14T16:21:44;99080.19;;;16.47;51.61
15670;BME280;18524;45.190;5.732;2022-11-14T16:26:35;99091.78;;;16.46;50.69
15670;BME280;18524;45.190;5.732;2022-11-14T16:31:25;99102.84;;;16.42;51.94
15670;BME280;18524;45.190;5.732;2022-11-14T16:36:19;99110.13;;;16.40;52.35
15670;BME280;18524;45.190;5.732;2022-11-14T16:41:12;99112.72;;;16.32;53.29
15670;BME280;18524;45.190;5.732;2022-11-14T16:46:04;99120.47;;;16.17;52.94
15670;BME280;18524;45.190;5.732;2022-11-14T16:50:59;99109.41;;;16.21;54.08
15670;BME280;18524;45.190;5.732;2022-11-14T16:55:49;99115.31;;;16.07;54.83
15670;BME280;18524;45.190;5.732;2022-11-14T17:00:42;99113.31;;;16.01;55.19
15670;BME280;18524;45.190;5.732;2022-11-14T17:05:32;99116.56;;;15.95;55.35
15670;BME280;18524;45.190;5.732;2022-11-14T17:10:23;99126.22;;;16.04;53.76
15670;BME280;18524;45.190;5.732;2022-11-14T17:15:13;99124.50;;;15.95;55.38
15670;BME280;18524;45.190;5.732;2022-11-14T17:20:04;99122.63;;;15.87;55.25
15670;BME280;18524;45.190;5.732;2022-11-14T17:24:54;99120.84;;;15.96;54.77
15670;BME280;18524;45.190;5.732;2022-11-14T17:29:45;99125.53;;;16.02;54.93
15670;BME280;18524;45.190;5.732;2022-11-14T17:34:35;99129.06;;;16.19;54.88
15670;BME280;18524;45.190;5.732;2022-11-14T17:39:26;99134.25;;;15.94;57.11
15670;BME280;18524;45.190;5.732;2022-11-14T17:44:16;99136.19;;;15.84;58.32
15670;BME280;18524;45.190;5.732;2022-11-14T17:49:06;99127.25;;;15.85;57.00
15670;BME280;18524;45.190;5.732;2022-11-14T17:53:57;99133.19;;;15.79;58.31
15670;BME280;18524;45.190;5.732;2022-11-14T17:58:49;99138.16;;;15.82;60.05
15670;BME280;18524;45.190;5.732;2022-11-14T18:03:40;99137.56;;;15.97;60.74
15670;BME280;18524;45.190;5.732;2022-11-14T18:08:30;99145.63;;;15.87;62.11
15670;BME280;18524;45.190;5.732;2022-11-14T18:13:21;99151.66;;;15.71;65.27
15670;BME280;18524;45.190;5.732;2022-11-14T18:18:11;99143.00;;;15.61;66.47
15670;BME280;18524;45.190;5.732;2022-11-14T18:23:01;99139.41;;;15.52;67.42
15670;BME280;18524;45.190;5.732;2022-11-14T18:27:52;99153.47;;;15.53;67.62
15670;BME280;18524;45.190;5.732;2022-11-14T18:32:42;99163.16;;;15.62;68.73
15670;BME280;18524;45.190;5.732;2022-11-14T18:37:33;99152.94;;;15.49;72.64
15670;BME280;18524;45.190;5.732;2022-11-14T18:42:23;99174.03;;;15.41;75.12
15670;BME280;18524;45.190;5.732;2022-11-14T18:47:14;99178.06;;;15.27;76.15
15670;BME280;18524;45.190;5.732;2022-11-14T18:52:04;99182.81;;;15.24;78.28
15670;BME280;18524;45.190;5.732;2022-11-14T18:56:55;99199.41;;;15.16;79.86
15670;BME280;18524;45.190;5.732;2022-11-14T19:01:46;99209.22;;;15.06;81.98
15670;BME280;18524;45.190;5.732;2022-11-14T19:06:38;99226.22;;;15.04;85.97
15670;BME280;18524;45.190;5.732;2022-11-14T19:11:30;99241.38;;;15.01;90.56
15670;BME280;18524;45.190;5.732;2022-11-14T19:16:39;99241.00;;;14.96;96.71
15670;BME280;18524;45.190;5.732;2022-11-14T19:21:29;99245.94;;;14.82;100.00
15670;BME280;18524;45.190;5.732;2022-11-14T19:26:21;99253.78;;;14.74;100.00
15670;BME280;18524;45.190;5.732;2022-11-14T19:31:11;99265.91;;;14.66;100.00
15670;BME280;18524;45.190;5.732;2022-11-14T19:36:06;99263.84;;;14.60;100.00
15670;BME280;18524;45.190;5.732;2022-11-14T19:40:57;99272.88;;;14.58;100.00
15670;BME280;18524;45.190;5.732;2022-11-14T19:45:47;99260.63;;;14.66;97.08
15670;BME280;18524;45.190;5.732;2022-11-14T19:50:38;99251.78;;;14.58;99.46
15670;BME280;18524;45.190;5.732;2022-11-14T19:55:29;99250.72;;;14.51;100.00
15670;BME280;18524;45.190;5.732;2022-11-14T20:00:20;99252.22;;;14.53;100.00
15670;BME280;18524;45.190;5.732;2022-11-14T20:05:13;99233.31;;;14.48;100.00
15670;BME280;18524;45.190;5.732;2022-11-14T20:10:05;99234.66;;;14.62;97.14
15670;BME280;18524;45.190;5.732;2022-11-14T20:14:56;99246.53;;;14.38;97.69
15670;BME280;18524;45.190;5.732;2022-11-14T20:19:47;99237.97;;;14.27;98.19
15670;BME280;18524;45.190;5.732;2022-11-14T20:24:37;99227.91;;;14.13;97.70
15670;BME280;18524;45.190;5.732;2022-11-14T20:29:28;99228.19;;;14.00;98.89
15670;BME280;18524;45.190;5.732;2022-11-14T20:34:19;99221.38;;;14.17;93.68
15670;BME280;18524;45.190;5.732;2022-11-14T20:39:11;99216.38;;;14.14;95.02
15670;BME280;18524;45.190;5.732;2022-11-14T20:44:01;99204.44;;;14.09;94.84
15670;BME280;18524;45.190;5.732;2022-11-14T20:48:52;99201.34;;;14.24;92.22
15670;BME280;18524;45.190;5.732;2022-11-14T20:53:43;99204.03;;;14.14;90.79
15670;BME280;18524;45.190;5.732;2022-11-14T20:58:34;99203.72;;;14.17;90.44
15670;BME280;18524;45.190;5.732;2022-11-14T21:03:25;99190.69;;;14.06;95.59
15670;BME280;18524;45.190;5.732;2022-11-14T21:08:15;99176.84;;;14.04;96.96
15670;BME280;18524;45.190;5.732;2022-11-14T21:13:07;99175.03;;;14.04;94.54
15670;BME280;18524;45.190;5.732;2022-11-14T21:18:15;99181.72;;;13.99;94.65
15670;BME280;18524;45.190;5.732;2022-11-14T21:23:06;99163.50;;;14.05;89.45
15670;BME280;18524;45.190;5.732;2022-11-14T21:27:56;99155.19;;;14.00;89.75
15670;BME280;18524;45.190;5.732;2022-11-14T21:32:46;99149.16;;;14.18;89.21
15670;BME280;18524;45.190;5.732;2022-11-14T21:37:37;99152.56;;;14.00;92.36
15670;BME280;18524;45.190;5.732;2022-11-14T21:42:27;99142.41;;;14.05;90.50
15670;BME280;18524;45.190;5.732;2022-11-14T21:47:17;99127.84;;;14.01;92.50
15670;BME280;18524;45.190;5.732;2022-11-14T21:52:08;99128.16;;;13.98;90.33
15670;BME280;18524;45.190;5.732;2022-11-14T21:56:58;99134.25;;;13.99;88.98
15670;BME280;18524;45.190;5.732;2022-11-14T22:01:49;99135.84;;;14.09;86.45
15670;BME280;18524;45.190;5.732;2022-11-14T22:07:01;99139.19;;;14.12;86.37
15670;BME280;18524;45.190;5.732;2022-11-14T22:11:52;99132.53;;;14.17;86.46
15670;BME280;18524;45.190;5.732;2022-11-14T22:16:42;99136.75;;;14.00;89.46
15670;BME280;18524;45.190;5.732;2022-11-14T22:21:32;99139.38;;;14.00;92.31
15670;BME280;18524;45.190;5.732;2022-11-14T22:26:23;99138.19;;;13.85;98.22
15670;BME280;18524;45.190;5.732;2022-11-14T22:31:15;99131.22;;;13.57;100.00
15670;BME280;18524;45.190;5.732;2022-11-14T22:36:09;99118.22;;;13.26;100.00
15670;BME280;18524;45.190;5.732;2022-11-14T22:41:01;99124.72;;;13.32;100.00
15670;BME280;18524;45.190;5.732;2022-11-14T22:45:52;99113.38;;;13.31;100.00
15670;BME280;18524;45.190;5.732;2022-11-14T22:50:43;99120.31;;;13.13;100.00
15670;BME280;18524;45.190;5.732;2022-11-14T22:55:33;99120.19;;;13.05;100.00
15670;BME280;18524;45.190;5.732;2022-11-14T23:00:23;99117.81;;;13.02;100.00
15670;BME280;18524;45.190;5.732;2022-11-14T23:05:14;99135.13;;;12.95;100.00
15670;BME280;18524;45.190;5.732;2022-11-14T23:10:04;99121.28;;;12.93;100.00
15670;BME280;18524;45.190;5.732;2022-11-14T23:14:55;99124.31;;;12.88;100.00
15670;BME280;18524;45.190;5.732;2022-11-14T23:19:45;99125.16;;;12.89;100.00
15670;BME280;18524;45.190;5.732;2022-11-14T23:24:36;99133.06;;;12.89;100.00
15670;BME280;18524;45.190;5.732;2022-11-14T23:29:26;99122.25;;;12.82;100.00
15670;BME280;18524;45.190;5.732;2022-11-14T23:34:16;99112.69;;;12.91;100.00
15670;BME280;18524;45.190;5.732;2022-11-14T23:39:07;99116.56;;;12.87;100.00
15670;BME280;18524;45.190;5.732;2022-11-14T23:43:57;99118.38;;;12.86;100.00
15670;BME280;18524;45.190;5.732;2022-11-14T23:48:48;99118.78;;;12.81;100.00
15670;BME280;18524;45.190;5.732;2022-11-14T23:53:38;99107.00;;;12.86;100.00
15670;BME280;18524;45.190;5.732;2022-11-14T23:58:29;99107.56;;;12.79;100.00
